ilmateenistus.ee keskkonnaagentuur.ee
EETN Tallinna lennuväli
FTEO31 EETN 171100
TAF EETN 171125Z 1712/1812 05012KT 9999 SCT030 TEMPO 1712/1715
    VRB18KT 4000 TSRA SCT025CB BECMG 1720/1722 36006KT PROB30 TEMPO
    1723/1804 2000 BR SCT003=

METAR EETN 171220Z 04010KT 010V080 9999 FEW025 FEW030TCU 21/11 Q1008 NOSIG=
Tallinna lennuväli
EEKA Kärdla lennuväli
FCEO32 EETN 171200
TAF EEKA 171200Z 1713/1719 02012KT 9999 SCT040CB PROB40 TEMPO
    1713/1716 VRB20KT 5000 TSRA SCT010 SCT030CB=

METAR EEKA 171150Z 02011KT 9999 FEW040TCU 19/15 Q1009=
Kärdla lennuväli
EEKE Kuressaare lennuväli
METAR EEKE 171150Z 21005KT 170V260 9999 SCT042TCU 21/13 Q1008=
Kuressaare lennuväli
EEPU Pärnu lennuväli
METAR EEPU 171150Z 04006KT 010V090 9999 VCSH BKN///CB 19/13 Q1007=
Pärnu lennuväli
EETU Tartu lennuväli
METAR EETU 171220Z AUTO 06009KT 010V100 9999 FEW040/// 20/11 Q1007=
Tartu lennuväli
EEEI Ämari lennuväli
METAR EEEI 171150Z 06009KT 030V090 9999 FEW039 22/13 Q1008 TEMPO FEW030CB=
Ämari lennuväli